Island Lake, Washington
Current Conditions -  °F | °C
As of 12:55 AM on Sunday 26 Oct 2014 (Local Time) from KPWT Reporting Station
Clear Clear  
Wind Chill: 43°   Ceiling: Unl
Heat Index: 48°   Visibility: 10mi
Dew Point: 46°   Wind: 14mph
Humidity: 93%   Direction: 190°S
Pressure: 29.78"   Gusts: 21mph
Location:  47.7571°N, 122.623°W
Report Text: KPWT 260755Z AUTO 19012G18KT 10SM CLR 09/08 A2978 RMK AO1
Loading
Personal Weather Stations






























Interactive Weather Map
Tropical Storm Tracking
New forecast layout! Learn more

10-Day Weather Forecast

Advertisements
Track Severe Weather on mobile